Time;durP1;ratioP1;P1;durP2;ratioP2;P2;SDS_P1;SDS_P2;PMS_P1;PMS_P2;Temp;Humidity;BMP_temperature;BMP_pressure;BME280_temperature;BME280_humidity;BME280_pressure;Samples;Min_cycle;Max_cycle;Signal;HPM_P1;HPM_P2
2021/04/22 00:00:18;;;;;;;69.53;45.97;;;12.00;97.50;;;;;;5075000;28;20044;-90
2021/04/22 00:02:44;;;;;;;64.30;43.65;;;12.00;97.60;;;;;;5076515;28;20055;-90
2021/04/22 00:05:20;;;;;;;64.78;44.15;;;12.00;97.60;;;;;;5060395;28;20097;-91
2021/04/22 00:07:48;;;;;;;63.70;43.95;;;11.90;97.60;;;;;;5065139;28;20536;-91
2021/04/22 00:10:24;;;;;;;64.55;43.65;;;11.90;97.60;;;;;;5061872;28;20046;-90
2021/04/22 00:12:51;;;;;;;63.90;43.75;;;11.90;97.70;;;;;;5060040;28;20071;-90
2021/04/22 00:15:19;;;;;;;65.43;44.03;;;11.80;97.70;;;;;;5075044;28;20047;-91
2021/04/22 00:17:47;;;;;;;62.08;41.95;;;11.80;97.70;;;;;;5076762;28;20090;-90
2021/04/22 00:20:15;;;;;;;61.15;42.03;;;11.80;97.80;;;;;;5061178;28;20067;-90
2021/04/22 00:22:42;;;;;;;61.10;42.87;;;11.70;97.90;;;;;;5065639;28;20101;-91
2021/04/22 00:25:10;;;;;;;64.10;43.13;;;11.70;97.90;;;;;;5072942;28;20441;-90
2021/04/22 00:27:37;;;;;;;63.97;44.15;;;11.70;97.90;;;;;;5059603;28;20127;-91
2021/04/22 00:30:06;;;;;;;61.58;43.65;;;11.70;98.00;;;;;;5073357;28;20101;-90
2021/04/22 00:32:34;;;;;;;62.10;43.63;;;11.70;98.00;;;;;;5063989;28;20045;-90
2021/04/22 00:35:00;;;;;;;62.55;43.33;;;11.60;98.10;;;;;;5059490;28;20047;-90
2021/04/22 00:37:27;;;;;;;59.65;42.80;;;11.60;98.10;;;;;;5070055;28;20450;-90
2021/04/22 00:39:53;;;;;;;63.50;43.50;;;11.60;98.20;;;;;;5072747;28;20080;-91
2021/04/22 00:42:20;;;;;;;63.03;44.60;;;11.60;98.20;;;;;;5058616;28;20145;-90
2021/04/22 00:44:48;;;;;;;65.60;43.97;;;11.50;98.20;;;;;;5061678;28;20135;-90
2021/04/22 00:47:15;;;;;;;62.17;43.10;;;11.50;98.30;;;;;;5061493;28;20307;-90
2021/04/22 00:49:43;;;;;;;64.70;43.90;;;11.40;98.30;;;;;;5062163;28;20073;-90
2021/04/22 00:52:10;;;;;;;64.95;43.58;;;11.40;98.40;;;;;;5062521;28;20050;-89
2021/04/22 00:54:38;;;;;;;66.15;43.30;;;11.40;98.50;;;;;;5059303;28;20135;-90
2021/04/22 00:57:07;;;;;;;59.92;43.05;;;11.40;98.60;;;;;;5059839;28;20068;-90
2021/04/22 00:59:35;;;;;;;63.40;42.35;;;11.40;98.60;;;;;;5067350;28;20044;-90
2021/04/22 01:02:06;;;;;;;63.75;43.45;;;11.30;98.60;;;;;;5062341;28;20064;-90
2021/04/22 01:04:33;;;;;;;65.35;43.40;;;11.30;98.80;;;;;;5061261;28;20041;-90
2021/04/22 01:07:00;;;;;;;67.85;45.13;;;11.20;99.10;;;;;;5061228;28;20048;-90
2021/04/22 01:09:27;;;;;;;64.55;43.22;;;11.20;99.00;;;;;;5073814;28;20047;-90
2021/04/22 01:11:55;;;;;;;65.70;43.67;;;11.20;99.00;;;;;;5056912;28;20075;-90
2021/04/22 01:14:22;;;;;;;66.28;43.47;;;11.20;99.10;;;;;;5068378;28;20126;-90
2021/04/22 01:16:49;;;;;;;63.47;44.13;;;11.10;99.10;;;;;;5065069;28;20064;-89
2021/04/22 01:19:16;;;;;;;65.22;42.97;;;11.10;99.20;;;;;;5060398;28;20378;-91
2021/04/22 01:21:43;;;;;;;65.93;41.60;;;11.10;99.20;;;;;;5072417;28;20521;-91
2021/04/22 01:24:11;;;;;;;61.00;42.38;;;11.10;99.30;;;;;;5071760;28;20044;-90
2021/04/22 01:26:39;;;;;;;64.40;43.88;;;11.00;99.30;;;;;;5060316;28;20066;-90
2021/04/22 01:29:06;;;;;;;68.65;44.30;;;11.00;99.50;;;;;;5066772;28;20093;-91
2021/04/22 01:31:33;;;;;;;66.93;41.70;;;10.90;99.50;;;;;;5069452;28;20067;-91
2021/04/22 01:34:06;;;;;;;62.38;43.58;;;10.90;99.60;;;;;;5072814;28;20044;-91
2021/04/22 01:36:34;;;;;;;66.32;44.10;;;10.90;99.70;;;;;;5072108;28;20044;-90
2021/04/22 01:39:04;;;;;;;60.15;43.70;;;10.90;99.80;;;;;;5051686;28;20045;-90
2021/04/22 01:41:30;;;;;;;61.00;43.88;;;10.90;99.80;;;;;;5070889;28;20054;-90
2021/04/22 01:43:57;;;;;;;68.28;45.28;;;10.80;99.90;;;;;;5073851;28;20378;-90
2021/04/22 01:46:25;;;;;;;68.85;43.65;;;10.80;99.90;;;;;;5069398;28;20048;-90
2021/04/22 01:48:52;;;;;;;69.15;44.90;;;10.80;99.90;;;;;;5072650;28;20389;-91
2021/04/22 01:51:20;;;;;;;66.55;44.75;;;10.80;99.90;;;;;;5056691;28;20926;-91
2021/04/22 01:53:47;;;;;;;71.47;45.50;;;10.70;99.90;;;;;;5071479;28;20059;-90
2021/04/22 01:56:15;;;;;;;65.38;44.58;;;10.70;99.90;;;;;;5058721;28;20122;-90
2021/04/22 01:58:41;;;;;;;69.13;45.80;;;10.70;99.90;;;;;;5063585;28;20044;-90
2021/04/22 02:01:10;;;;;;;67.10;44.58;;;10.70;99.90;;;;;;5068892;28;20052;-90
2021/04/22 02:03:37;;;;;;;69.80;46.10;;;10.60;99.90;;;;;;5077020;28;20040;-90
2021/04/22 02:06:07;;;;;;;67.78;45.40;;;10.60;99.90;;;;;;5048236;28;20044;-90
2021/04/22 02:08:34;;;;;;;65.75;45.20;;;10.60;99.90;;;;;;5061475;28;20064;-90
2021/04/22 02:11:02;;;;;;;72.38;45.45;;;10.60;99.90;;;;;;5066750;28;20496;-90
2021/04/22 02:13:31;;;;;;;71.25;46.13;;;10.60;99.90;;;;;;5059142;28;20040;-89
2021/04/22 02:16:18;;;;;;;60.72;44.30;;;10.60;99.90;;;;;;5075127;28;20474;-90
2021/04/22 02:18:44;;;;;;;66.00;45.90;;;10.50;99.90;;;;;;5059035;28;20036;-90
2021/04/22 02:21:12;;;;;;;63.92;43.65;;;10.50;99.90;;;;;;5047074;28;20044;-91
2021/04/22 02:23:38;;;;;;;66.22;43.33;;;10.50;99.90;;;;;;5070801;28;20093;-91
2021/04/22 02:26:06;;;;;;;65.00;45.07;;;10.50;99.90;;;;;;5063816;28;20056;-91
2021/04/22 02:28:34;;;;;;;69.40;45.40;;;10.50;99.90;;;;;;5060147;28;20274;-90
2021/04/22 02:31:02;;;;;;;67.32;45.53;;;10.40;99.90;;;;;;5061511;28;20036;-90
2021/04/22 02:33:29;;;;;;;70.60;46.55;;;10.40;99.90;;;;;;5057142;28;20048;-90
2021/04/22 02:35:56;;;;;;;67.70;45.63;;;10.40;99.90;;;;;;5072285;28;20127;-90
2021/04/22 02:38:23;;;;;;;72.47;46.00;;;10.40;99.90;;;;;;5061706;28;20051;-91
2021/04/22 02:40:50;;;;;;;69.38;46.05;;;10.40;99.90;;;;;;5060476;28;20072;-90
2021/04/22 02:43:19;;;;;;;71.18;45.47;;;10.40;99.90;;;;;;5058770;28;20488;-91
2021/04/22 02:45:53;;;;;;;72.03;46.45;;;10.40;99.90;;;;;;5050062;28;20796;-90
2021/04/22 02:48:24;;;;;;;67.43;45.70;;;10.30;99.90;;;;;;5073692;28;20048;-90
2021/04/22 02:50:53;;;;;;;69.97;46.08;;;10.30;99.90;;;;;;5070817;28;20040;-91
2021/04/22 02:53:22;;;;;;;67.75;45.97;;;10.30;99.90;;;;;;5067544;28;20054;-91
2021/04/22 02:55:49;;;;;;;70.93;46.87;;;10.30;99.90;;;;;;5068515;28;20050;-90
2021/04/22 02:58:24;;;;;;;75.18;46.10;;;10.30;99.90;;;;;;5069137;28;20608;-91
2021/04/22 03:00:51;;;;;;;70.50;46.30;;;10.30;99.90;;;;;;5057620;28;20052;-91
2021/04/22 03:03:18;;;;;;;69.97;46.20;;;10.30;99.90;;;;;;5062705;28;20044;-90
2021/04/22 03:05:45;;;;;;;69.60;45.25;;;10.30;99.90;;;;;;5070544;28;20044;-91
2021/04/22 03:08:12;;;;;;;70.20;46.90;;;10.30;99.90;;;;;;5059114;28;20044;-91
2021/04/22 03:10:39;;;;;;;67.30;46.33;;;10.30;99.90;;;;;;5066736;28;20120;-91
2021/04/22 03:13:06;;;;;;;69.28;46.90;;;10.20;99.90;;;;;;5059656;28;20044;-91
2021/04/22 03:15:34;;;;;;;71.03;47.60;;;10.20;99.90;;;;;;5057776;28;20117;-90
2021/04/22 03:18:01;;;;;;;72.15;45.97;;;10.20;99.90;;;;;;5070823;28;20056;-90
2021/04/22 03:20:29;;;;;;;70.90;47.45;;;10.20;99.90;;;;;;5069286;28;20591;-91
2021/04/22 03:22:56;;;;;;;75.78;47.17;;;10.10;99.90;;;;;;5068365;28;20082;-90
2021/04/22 03:25:25;;;;;;;75.03;47.97;;;10.10;99.90;;;;;;5063962;28;20048;-90
2021/04/22 03:27:52;;;;;;;74.15;48.50;;;10.20;99.90;;;;;;5060106;28;20047;-90
2021/04/22 03:30:23;;;;;;;71.95;48.95;;;10.10;99.90;;;;;;5056833;28;20140;-90
2021/04/22 03:32:52;;;;;;;74.93;48.13;;;10.10;99.90;;;;;;5063277;28;20048;-90
2021/04/22 03:35:20;;;;;;;74.60;48.33;;;10.10;99.90;;;;;;5050564;28;20534;-90
2021/04/22 03:37:47;;;;;;;71.25;48.08;;;10.10;99.90;;;;;;5049362;28;20538;-90
2021/04/22 03:40:14;;;;;;;78.70;48.47;;;10.10;99.90;;;;;;5054470;28;20044;-90
2021/04/22 03:42:43;;;;;;;76.82;49.67;;;10.10;99.90;;;;;;5080078;28;20066;-90
2021/04/22 03:45:12;;;;;;;73.95;49.42;;;10.00;99.90;;;;;;5071799;28;20131;-90
2021/04/22 03:47:39;;;;;;;75.68;49.22;;;10.00;99.90;;;;;;5076752;28;20366;-90
2021/04/22 03:50:10;;;;;;;74.22;48.42;;;10.00;99.90;;;;;;5065434;28;20047;-90
2021/04/22 03:52:39;;;;;;;75.63;49.03;;;10.00;99.90;;;;;;5063343;28;20064;-90
2021/04/22 03:55:07;;;;;;;72.80;48.65;;;10.00;99.90;;;;;;5060682;28;20052;-91
2021/04/22 03:57:34;;;;;;;74.78;48.78;;;10.00;99.90;;;;;;5073587;28;20072;-90
2021/04/22 04:00:05;;;;;;;78.22;49.25;;;10.00;99.90;;;;;;5061326;28;20140;-90
2021/04/22 04:02:32;;;;;;;75.53;48.42;;;10.00;99.90;;;;;;5072128;28;20048;-90
2021/04/22 04:05:03;;;;;;;84.18;49.83;;;9.90;99.90;;;;;;5063005;28;20055;-90
2021/04/22 04:07:33;;;;;;;75.35;49.63;;;9.90;99.90;;;;;;5070666;28;20047;-91
2021/04/22 04:10:00;;;;;;;76.55;48.08;;;9.90;99.90;;;;;;5072073;28;20140;-90
2021/04/22 04:12:27;;;;;;;77.03;48.88;;;9.90;99.90;;;;;;5074365;28;20048;-90
2021/04/22 04:14:55;;;;;;;75.50;49.63;;;9.90;99.90;;;;;;5062295;28;20071;-90
2021/04/22 04:17:22;;;;;;;73.32;49.83;;;9.90;99.90;;;;;;5062614;28;20049;-91
2021/04/22 04:19:50;;;;;;;78.85;49.63;;;9.90;99.90;;;;;;5056650;28;20048;-90
2021/04/22 04:22:17;;;;;;;80.28;51.00;;;9.90;99.90;;;;;;5073846;28;20047;-91
2021/04/22 04:24:44;;;;;;;81.15;50.25;;;9.90;99.90;;;;;;5053664;28;20040;-90
2021/04/22 04:27:11;;;;;;;77.10;50.65;;;9.80;99.90;;;;;;5049155;28;20076;-90
2021/04/22 04:29:37;;;;;;;78.20;50.58;;;9.80;99.90;;;;;;5064319;28;20127;-90
2021/04/22 04:32:04;;;;;;;79.28;52.28;;;9.80;99.90;;;;;;5068242;28;20389;-90
2021/04/22 04:34:30;;;;;;;85.38;51.08;;;9.80;99.90;;;;;;5068956;28;20040;-90
2021/04/22 04:36:57;;;;;;;83.43;51.83;;;9.80;99.90;;;;;;5071708;28;20054;-90
2021/04/22 04:39:27;;;;;;;84.22;51.15;;;9.70;99.90;;;;;;5074941;28;20053;-90
2021/04/22 04:41:53;;;;;;;79.07;50.92;;;9.70;99.90;;;;;;5063393;28;20469;-90
2021/04/22 04:44:20;;;;;;;77.82;51.22;;;9.70;99.90;;;;;;5062573;28;20127;-90
2021/04/22 04:46:47;;;;;;;81.05;50.42;;;9.70;99.90;;;;;;5062358;28;20069;-90
2021/04/22 04:49:14;;;;;;;84.07;50.80;;;9.70;99.90;;;;;;5064675;28;20062;-90
2021/04/22 04:51:40;;;;;;;80.00;52.17;;;9.70;99.90;;;;;;5065561;28;20378;-90
2021/04/22 04:54:07;;;;;;;81.78;52.25;;;9.60;99.90;;;;;;5059027;28;20044;-90
2021/04/22 04:56:35;;;;;;;87.75;52.88;;;9.60;99.90;;;;;;5061799;28;20040;-90
2021/04/22 04:59:04;;;;;;;81.20;50.97;;;9.60;99.90;;;;;;5074666;28;20062;-90
2021/04/22 05:01:31;;;;;;;79.32;49.63;;;9.60;99.90;;;;;;5055128;28;20044;-90
2021/04/22 05:04:01;;;;;;;83.47;53.22;;;9.60;99.90;;;;;;5073402;28;20044;-90
2021/04/22 05:06:27;;;;;;;88.10;53.95;;;9.60;99.90;;;;;;5057244;28;20052;-91
2021/04/22 05:08:54;;;;;;;86.30;52.55;;;9.60;99.90;;;;;;5051894;28;20036;-90
2021/04/22 05:11:20;;;;;;;84.90;52.22;;;9.50;99.90;;;;;;5061319;28;20044;-89
2021/04/22 05:13:47;;;;;;;82.97;51.40;;;9.50;99.90;;;;;;5064862;28;20098;-89
2021/04/22 05:16:15;;;;;;;80.85;51.72;;;9.50;99.90;;;;;;5069325;28;20049;-85
2021/04/22 05:18:41;;;;;;;83.43;51.38;;;9.50;99.90;;;;;;5072090;28;20070;-92
2021/04/22 05:21:09;;;;;;;86.05;53.13;;;9.50;99.90;;;;;;5072203;28;20105;-88
2021/04/22 05:23:36;;;;;;;82.22;52.78;;;9.50;99.90;;;;;;5071183;28;20036;-89
2021/04/22 05:26:02;;;;;;;83.45;51.40;;;9.50;99.90;;;;;;5070989;28;20043;-89
2021/04/22 05:28:29;;;;;;;86.30;54.45;;;9.50;99.90;;;;;;5072086;28;20036;-90
2021/04/22 05:30:55;;;;;;;81.43;52.78;;;9.50;99.90;;;;;;5060592;28;20142;-88
2021/04/22 05:33:22;;;;;;;85.68;53.05;;;9.50;99.90;;;;;;5057027;28;20052;-89
2021/04/22 05:35:49;;;;;;;80.55;52.80;;;9.50;99.90;;;;;;5059992;28;20083;-86
2021/04/22 05:38:15;;;;;;;88.63;53.42;;;9.50;99.90;;;;;;5060271;28;20054;-89
2021/04/22 05:40:42;;;;;;;81.20;51.42;;;9.50;99.90;;;;;;5066602;28;20047;-89
2021/04/22 05:43:10;;;;;;;88.32;54.25;;;9.60;99.90;;;;;;5068332;28;20049;-89
2021/04/22 05:45:37;;;;;;;84.72;51.95;;;9.60;99.90;;;;;;5072727;28;20066;-89
2021/04/22 05:48:05;;;;;;;76.38;50.22;;;9.60;99.90;;;;;;5071268;28;20488;-88
2021/04/22 05:50:33;;;;;;;82.00;53.25;;;9.60;99.90;;;;;;5069905;28;20051;-92
2021/04/22 05:53:00;;;;;;;83.85;51.03;;;9.70;99.90;;;;;;5066433;28;20095;-89
2021/04/22 05:55:26;;;;;;;82.72;51.63;;;9.70;99.90;;;;;;5067994;28;20426;-88
2021/04/22 05:57:57;;;;;;;76.22;50.92;;;9.70;99.90;;;;;;5058982;28;20040;-88
2021/04/22 06:00:25;;;;;;;84.90;52.65;;;9.80;99.90;;;;;;5056153;28;20509;-89
2021/04/22 06:02:52;;;;;;;80.55;51.38;;;9.80;99.90;;;;;;5059685;28;20040;-89
2021/04/22 06:05:19;;;;;;;78.32;51.63;;;9.90;99.90;;;;;;5067556;28;20446;-89
2021/04/22 06:07:46;;;;;;;80.53;51.70;;;9.90;99.90;;;;;;5060499;28;20102;-88
2021/04/22 06:10:16;;;;;;;79.70;52.30;;;10.00;99.90;;;;;;5066467;28;20040;-89
2021/04/22 06:12:43;;;;;;;73.10;49.75;;;10.10;99.90;;;;;;5062330;28;20047;-90
2021/04/22 06:15:11;;;;;;;81.75;50.20;;;10.10;99.90;;;;;;5056138;28;20119;-89
2021/04/22 06:17:40;;;;;;;72.20;50.28;;;10.20;99.90;;;;;;5059807;28;20045;-89
2021/04/22 06:20:21;;;;;;;83.70;51.50;;;10.20;99.90;;;;;;5060438;28;20048;-89
2021/04/22 06:22:50;;;;;;;75.65;49.88;;;10.30;99.90;;;;;;5063025;28;20039;-90
2021/04/22 06:25:19;;;;;;;73.60;48.25;;;10.40;99.90;;;;;;5068706;28;20044;-90
2021/04/22 06:27:46;;;;;;;74.05;49.13;;;10.40;99.90;;;;;;5057436;28;20117;-89
2021/04/22 06:30:13;;;;;;;74.80;47.95;;;10.50;99.90;;;;;;5065256;28;20051;-89
2021/04/22 06:32:40;;;;;;;74.55;49.67;;;10.60;99.90;;;;;;5073738;28;20040;-89
2021/04/22 06:35:12;;;;;;;75.47;49.40;;;10.60;99.90;;;;;;5051237;28;20056;-89
2021/04/22 06:37:40;;;;;;;79.63;50.88;;;10.70;99.90;;;;;;5059498;28;20101;-89
2021/04/22 06:40:14;;;;;;;68.97;47.63;;;10.80;99.90;;;;;;5050812;28;20063;-89
2021/04/22 06:42:51;;;;;;;73.80;48.20;;;10.90;99.90;;;;;;5059483;28;20047;-89
2021/04/22 06:45:18;;;;;;;75.40;49.95;;;10.90;99.90;;;;;;5056340;28;20382;-89
2021/04/22 06:47:47;;;;;;;71.57;47.83;;;11.00;99.90;;;;;;5068777;28;20040;-89
2021/04/22 06:50:18;;;;;;;70.80;46.40;;;11.00;99.90;;;;;;5068086;28;20044;-90
2021/04/22 06:52:45;;;;;;;73.18;49.00;;;11.10;99.90;;;;;;5065387;28;20054;-89
2021/04/22 06:55:24;;;;;;;76.63;49.53;;;11.20;99.90;;;;;;5058910;28;20047;-91
2021/04/22 06:57:56;;;;;;;70.78;47.83;;;11.30;99.90;;;;;;5058266;28;20048;-90
2021/04/22 07:00:25;;;;;;;67.63;47.65;;;11.40;99.90;;;;;;5071219;28;20485;-90
2021/04/22 07:02:52;;;;;;;70.05;45.75;;;11.50;99.90;;;;;;5055158;28;20432;-90
2021/04/22 07:05:20;;;;;;;67.22;46.10;;;11.60;99.90;;;;;;5066640;28;20039;-90
2021/04/22 07:07:46;;;;;;;66.95;46.22;;;11.70;99.90;;;;;;5067915;28;20542;-91
2021/04/22 07:10:14;;;;;;;68.18;45.35;;;11.90;99.90;;;;;;5074216;28;20045;-90
2021/04/22 07:12:41;;;;;;;66.63;45.67;;;11.90;99.90;;;;;;5076338;28;20045;-90
2021/04/22 07:15:10;;;;;;;66.45;45.95;;;12.10;99.90;;;;;;5060903;28;20051;-90
2021/04/22 07:17:37;;;;;;;62.75;44.63;;;12.20;99.90;;;;;;5063495;28;20045;-90
2021/04/22 07:20:11;;;;;;;62.00;43.43;;;12.30;99.90;;;;;;5064093;28;20076;-90
2021/04/22 07:22:52;;;;;;;59.83;43.67;;;12.40;99.90;;;;;;5072948;28;20046;-90
2021/04/22 07:25:19;;;;;;;62.38;44.03;;;12.60;99.90;;;;;;5074684;28;20044;-90
2021/04/22 07:27:46;;;;;;;65.38;43.45;;;12.70;99.90;;;;;;5061541;28;20041;-91
2021/04/22 07:30:15;;;;;;;56.47;40.55;;;12.80;99.90;;;;;;5059816;28;20044;-91
2021/04/22 07:32:42;;;;;;;60.88;44.03;;;12.90;99.90;;;;;;5074008;28;20051;-90
2021/04/22 07:35:10;;;;;;;61.50;41.50;;;12.90;99.90;;;;;;5067837;28;20052;-90
2021/04/22 07:37:46;;;;;;;62.33;40.63;;;13.10;99.90;;;;;;5082486;28;20045;-91
2021/04/22 07:40:17;;;;;;;59.67;42.58;;;13.20;99.90;;;;;;5059622;28;20049;-91
2021/04/22 07:42:44;;;;;;;57.58;40.60;;;13.30;99.90;;;;;;5062788;28;20094;-92
2021/04/22 07:45:12;;;;;;;68.45;43.80;;;13.40;99.80;;;;;;5059439;28;20045;-91
2021/04/22 07:47:38;;;;;;;54.20;39.45;;;13.60;99.80;;;;;;5061147;28;20087;-91
2021/04/22 07:50:09;;;;;;;60.90;41.05;;;13.70;99.70;;;;;;5062726;28;20036;-91
2021/04/22 07:52:36;;;;;;;52.13;37.75;;;13.80;99.40;;;;;;5065640;28;20135;-91
2021/04/22 07:55:08;;;;;;;50.85;36.88;;;14.00;99.00;;;;;;5070291;28;20071;-91
2021/04/22 07:57:39;;;;;;;54.60;38.17;;;14.10;98.80;;;;;;5079229;28;20040;-91
2021/04/22 08:00:08;;;;;;;52.67;40.55;;;14.20;98.60;;;;;;5064092;28;20044;-91
2021/04/22 08:02:38;;;;;;;52.58;40.22;;;14.30;98.30;;;;;;5073305;28;20051;-91
2021/04/22 08:05:07;;;;;;;49.47;36.65;;;14.50;98.30;;;;;;5062010;28;20047;-91
2021/04/22 08:07:35;;;;;;;56.30;38.10;;;14.60;98.10;;;;;;5064328;28;20051;-90
2021/04/22 08:10:07;;;;;;;52.60;38.53;;;14.80;97.90;;;;;;5061019;28;20477;-91
2021/04/22 08:12:35;;;;;;;46.38;36.50;;;14.90;97.70;;;;;;5053253;28;20055;-91
2021/04/22 08:15:05;;;;;;;45.33;35.40;;;15.00;97.50;;;;;;5055661;28;20521;-90
2021/04/22 08:17:32;;;;;;;47.80;34.47;;;15.10;97.10;;;;;;5074101;28;20114;-91
2021/04/22 08:19:59;;;;;;;51.50;37.00;;;15.30;97.20;;;;;;5076333;28;20542;-90
2021/04/22 08:22:26;;;;;;;52.70;34.60;;;15.40;96.60;;;;;;5052813;28;20055;-90
2021/04/22 08:24:55;;;;;;;50.92;35.85;;;15.40;96.30;;;;;;5056728;28;20116;-89
2021/04/22 08:27:22;;;;;;;47.72;36.30;;;15.50;96.20;;;;;;5067717;28;20567;-90
2021/04/22 08:29:53;;;;;;;46.58;35.90;;;15.50;96.00;;;;;;5056235;28;20367;-90
2021/04/22 08:32:20;;;;;;;48.55;36.67;;;15.60;95.90;;;;;;5050373;28;20076;-90
2021/04/22 08:34:47;;;;;;;48.40;33.85;;;15.70;95.80;;;;;;5056947;28;20482;-90
2021/04/22 08:37:13;;;;;;;44.53;33.50;;;15.80;95.80;;;;;;5032282;28;20478;-90
2021/04/22 08:39:40;;;;;;;49.47;36.88;;;15.90;95.70;;;;;;5042810;28;20041;-90
2021/04/22 08:42:07;;;;;;;47.42;36.75;;;16.00;96.10;;;;;;5034850;28;20053;-90
2021/04/22 08:44:34;;;;;;;48.75;35.78;;;16.20;95.70;;;;;;5031188;28;20067;-90
2021/04/22 08:47:04;;;;;;;109.07;37.72;;;16.30;95.30;;;;;;5040532;28;20555;-90
2021/04/22 08:49:31;;;;;;;45.60;31.88;;;16.30;95.20;;;;;;5046156;28;20041;-91
2021/04/22 08:51:57;;;;;;;41.03;32.88;;;16.40;95.00;;;;;;5045646;28;20746;-90
2021/04/22 08:54:26;;;;;;;45.00;34.05;;;16.50;94.90;;;;;;5055855;28;20505;-91
2021/04/22 08:57:00;;;;;;;44.15;33.00;;;16.60;94.60;;;;;;5049288;28;20055;-90
2021/04/22 08:59:35;;;;;;;40.80;30.60;;;16.60;94.40;;;;;;5037416;28;20037;-92
2021/04/22 09:02:03;;;;;;;41.45;32.35;;;16.70;94.20;;;;;;5049169;28;20048;-90
2021/04/22 09:04:32;;;;;;;43.55;33.72;;;16.80;94.30;;;;;;5043716;28;20515;-90
2021/04/22 09:06:59;;;;;;;45.53;33.67;;;16.90;94.30;;;;;;5040066;28;20072;-91
2021/04/22 09:09:32;;;;;;;46.95;35.30;;;17.00;94.20;;;;;;5050131;28;20051;-91
2021/04/22 09:12:01;;;;;;;46.72;34.45;;;17.10;94.10;;;;;;5048134;28;20048;-91
2021/04/22 09:14:30;;;;;;;46.97;33.95;;;17.20;94.00;;;;;;5048816;28;20040;-90
2021/04/22 09:16:58;;;;;;;39.35;31.88;;;17.30;93.90;;;;;;5067314;28;20513;-92
2021/04/22 09:19:26;;;;;;;42.17;32.72;;;17.40;93.70;;;;;;5027802;28;20049;-91
2021/04/22 09:21:57;;;;;;;38.47;28.55;;;17.50;93.50;;;;;;5045170;28;20128;-91
2021/04/22 09:24:29;;;;;;;36.10;31.20;;;17.60;93.30;;;;;;5034086;28;20083;-91
2021/04/22 09:27:13;;;;;;;38.97;30.25;;;17.70;93.20;;;;;;5041432;28;20493;-91
2021/04/22 09:29:49;;;;;;;40.03;30.95;;;17.80;93.10;;;;;;5051017;28;20044;-91
2021/04/22 09:32:24;;;;;;;39.63;30.23;;;17.90;93.00;;;;;;5034640;28;20040;-91
2021/04/22 09:34:58;;;;;;;41.67;30.85;;;17.90;92.70;;;;;;5049267;28;20132;-90
2021/04/22 09:37:40;;;;;;;39.00;30.60;;;18.00;92.80;;;;;;5061615;28;20093;-91
2021/04/22 09:40:20;;;;;;;38.42;28.80;;;18.10;92.10;;;;;;5070357;28;20047;-90
2021/04/22 09:42:53;;;;;;;40.85;30.58;;;18.10;92.10;;;;;;5057465;28;20046;-91
2021/04/22 09:45:24;;;;;;;33.55;28.05;;;18.20;92.30;;;;;;5055168;28;20485;-91
2021/04/22 09:48:26;;;;;;;43.10;29.65;;;18.30;92.20;;;;;;5033714;28;20049;-91
2021/04/22 09:51:02;;;;;;;39.70;29.08;;;18.30;91.90;;;;;;5060985;28;20044;-92
2021/04/22 09:53:41;;;;;;;36.28;28.92;;;18.40;91.70;;;;;;5066128;28;20055;-91
2021/04/22 09:56:13;;;;;;;36.17;29.90;;;18.40;91.60;;;;;;5072232;28;20496;-90
2021/04/22 09:58:41;;;;;;;35.85;29.27;;;18.50;91.50;;;;;;5061358;28;20385;-90
2021/04/22 10:01:20;;;;;;;33.40;28.97;;;18.50;91.40;;;;;;5067599;28;20040;-90
2021/04/22 10:03:54;;;;;;;33.80;27.83;;;18.60;91.40;;;;;;5067546;28;20313;-90
2021/04/22 10:06:23;;;;;;;30.75;25.42;;;18.70;91.50;;;;;;5068096;28;20052;-90
2021/04/22 10:08:51;;;;;;;32.75;27.23;;;18.70;91.30;;;;;;5070912;28;20465;-90
2021/04/22 10:11:18;;;;;;;30.27;25.08;;;18.80;91.10;;;;;;5045108;28;20048;-90
2021/04/22 10:13:49;;;;;;;29.40;25.50;;;18.80;90.80;;;;;;5085880;28;20043;-89
2021/04/22 10:16:18;;;;;;;29.15;24.52;;;18.90;90.60;;;;;;5066305;28;20051;-91
2021/04/22 10:18:46;;;;;;;29.05;25.27;;;18.90;90.40;;;;;;5067047;28;20051;-91
2021/04/22 10:21:13;;;;;;;33.33;26.20;;;19.00;90.20;;;;;;5069235;28;20108;-90
2021/04/22 10:23:40;;;;;;;30.92;26.33;;;18.90;90.00;;;;;;5067288;28;20650;-90
2021/04/22 10:26:21;;;;;;;25.47;22.60;;;19.00;90.10;;;;;;5067610;28;20123;-90
2021/04/22 10:28:47;;;;;;;36.63;27.13;;;19.00;90.10;;;;;;5069135;28;20040;-90
2021/04/22 10:31:14;;;;;;;31.13;26.63;;;19.10;90.20;;;;;;5069767;28;20052;-90
2021/04/22 10:33:42;;;;;;;32.40;25.85;;;19.10;90.00;;;;;;5053558;28;20048;-90
2021/04/22 10:36:10;;;;;;;30.27;25.52;;;19.20;90.20;;;;;;5067806;28;20428;-91
2021/04/22 10:38:38;;;;;;;32.80;25.13;;;19.30;90.10;;;;;;5067290;28;20047;-90
2021/04/22 10:41:11;;;;;;;21.73;19.48;;;19.40;90.00;;;;;;5064319;28;20040;-91
2021/04/22 10:43:40;;;;;;;30.98;19.60;;;19.40;88.10;;;;;;5067221;28;20393;-91
2021/04/22 10:46:07;;;;;;;25.05;21.00;;;19.50;87.40;;;;;;5067065;28;20048;-90
2021/04/22 10:48:35;;;;;;;24.40;19.95;;;19.50;87.50;;;;;;5070606;28;20079;-90
2021/04/22 10:51:01;;;;;;;23.70;19.70;;;19.60;87.60;;;;;;5066913;28;20048;-91
2021/04/22 10:53:28;;;;;;;19.50;15.60;;;19.60;87.10;;;;;;5064551;28;20046;-91
2021/04/22 10:56:01;;;;;;;17.25;14.63;;;19.70;85.90;;;;;;5067941;28;20043;-91
2021/04/22 10:58:29;;;;;;;23.50;19.08;;;19.70;84.60;;;;;;5066316;28;20040;-90
2021/04/22 11:01:03;;;;;;;20.50;17.95;;;19.80;84.90;;;;;;5069355;28;20040;-89
2021/04/22 11:03:33;;;;;;;18.65;16.55;;;19.80;85.00;;;;;;5084182;28;20545;-91
2021/04/22 11:06:22;;;;;;;19.58;16.52;;;19.90;84.40;;;;;;5072246;28;20185;-91
2021/04/22 11:08:53;;;;;;;18.30;15.93;;;20.00;84.00;;;;;;5065115;28;20048;-90
2021/04/22 11:11:35;;;;;;;49.53;17.42;;;20.00;83.90;;;;;;5076250;28;20054;-89
2021/04/22 11:14:14;;;;;;;18.10;15.60;;;19.90;81.30;;;;;;5070787;28;20132;-90
2021/04/22 11:16:53;;;;;;;17.08;14.00;;;19.90;81.60;;;;;;5070270;28;20032;-91
2021/04/22 11:19:25;;;;;;;15.95;14.25;;;20.00;81.20;;;;;;5068849;28;20097;-90
2021/04/22 11:21:55;;;;;;;18.88;14.23;;;19.90;80.30;;;;;;5042963;28;20094;-90
2021/04/22 11:24:35;;;;;;;15.05;13.45;;;20.00;80.50;;;;;;5048620;28;20062;-91
2021/04/22 11:27:08;;;;;;;31.27;14.88;;;20.00;82.00;;;;;;5062161;28;20044;-90
2021/04/22 11:29:59;;;;;;;17.77;12.43;;;20.10;81.30;;;;;;5071551;28;20044;-90
2021/04/22 11:32:42;;;;;;;20.23;13.20;;;20.20;80.80;;;;;;5058981;28;20469;-91
2021/04/22 11:35:20;;;;;;;16.45;13.15;;;20.10;80.10;;;;;;5084243;28;20060;-90
2021/04/22 11:37:53;;;;;;;16.60;13.07;;;20.20;79.70;;;;;;5054230;28;20048;-90
2021/04/22 11:40:27;;;;;;;17.25;12.88;;;20.10;79.60;;;;;;5049630;28;20041;-91
2021/04/22 11:42:56;;;;;;;13.65;12.25;;;20.20;80.40;;;;;;5067978;28;20051;-90
2021/04/22 11:45:25;;;;;;;16.55;13.02;;;20.20;79.40;;;;;;5053788;28;20052;-90
2021/04/22 11:47:56;;;;;;;22.83;13.45;;;20.20;79.10;;;;;;5065583;28;20128;-90
2021/04/22 11:50:48;;;;;;;16.45;14.70;;;20.20;78.10;;;;;;5066053;28;20055;-90
2021/04/22 11:53:31;;;;;;;;;;;;;;;;;;;;;
2021/04/22 11:56:17;;;;;;;;;;;;;;;;;;;;;
2021/04/22 11:58:50;;;;;;;13.30;11.55;;;20.20;78.40;;;;;;4980837;28;20115;-91
2021/04/22 12:01:37;;;;;;;17.30;12.45;;;20.30;77.80;;;;;;4875345;29;20041;-90
2021/04/22 12:04:04;;;;;;;13.25;11.75;;;20.30;77.60;;;;;;4881387;29;20148;-89
2021/04/22 12:06:31;;;;;;;13.65;12.23;;;20.30;77.80;;;;;;4873352;29;20049;-90
2021/04/22 12:08:58;;;;;;;15.55;11.52;;;20.40;78.20;;;;;;4904495;29;20048;-90
2021/04/22 12:11:26;;;;;;;15.48;10.95;;;20.50;77.50;;;;;;4869417;29;20049;-90
2021/04/22 12:13:55;;;;;;;15.80;9.95;;;20.50;76.30;;;;;;4879561;29;20044;-90
2021/04/22 12:16:23;;;;;;;19.08;11.15;;;20.50;75.90;;;;;;4873560;29;20083;-90
2021/04/22 12:18:51;;;;;;;17.70;11.00;;;20.50;76.00;;;;;;4906460;28;20042;-90
2021/04/22 12:21:23;;;;;;;16.83;11.52;;;20.50;75.90;;;;;;4980174;28;20053;-90
2021/04/22 12:23:58;;;;;;;16.98;12.13;;;20.50;75.50;;;;;;4969509;28;20093;-90
2021/04/22 12:26:35;;;;;;;14.00;12.57;;;20.50;76.20;;;;;;4988641;28;20062;-90
2021/04/22 12:29:10;;;;;;;14.57;13.07;;;20.60;76.70;;;;;;4982355;28;20045;-90
2021/04/22 12:31:42;;;;;;;14.00;12.40;;;20.70;76.90;;;;;;5058614;28;20101;-91
2021/04/22 12:34:27;;;;;;;17.35;13.32;;;20.80;76.70;;;;;;5071100;28;20048;-90
2021/04/22 12:37:07;;;;;;;14.95;11.35;;;20.80;75.60;;;;;;5068290;28;20048;-90
2021/04/22 12:39:56;;;;;;;22.40;13.02;;;20.80;74.70;;;;;;5064260;28;20044;-90
2021/04/22 12:42:25;;;;;;;21.37;12.60;;;20.80;74.60;;;;;;5058942;28;20059;-90